Aviation Digital Data Service (ADDS)

Output produced by METARs form (1939 UTC 18 June 2019)
found at http://www.aviationweather.gov/metar/data/
 
RKTU 181928Z 34001KT 4000 BR BKN030 OVC110 20/19 Q1009 RMK CIG030
TAF RKTU 181700Z 1818/1924 27001KT 4800 BR SCT030 SCT100 TN16/1821Z TX28/1906Z 
     BECMG 1819/1820 27006KT BKN015 
     BECMG 1900/1901 9999 NSW BKN030 
     BECMG 
       
RKTN 181900Z 31002KT CAVOK 19/16 Q1008
TAF RKTN 181700Z 1818/1924 31008KT CAVOK TN19/1821Z TX29/1906Z
       
RKPK 181900Z 23003KT 8000 NSC 19/18 Q1008
TAF RKPK 181700Z 1818/1924 33006KT 9999 SCT030 TN18/1821Z TX28/1906Z 
     BECMG 1901/1902 18010KT
       
RKSS 181900Z 27004KT 240V300 9000 BKN015 BKN030 20/18 Q1009 TEMPO -RA
TAF RKSS 181700Z 1818/1924 21006KT 6000 FEW010 BKN025 OVC080 TN18/1820Z
TX26/1906Z TN18/1921Z 
     TEMPO 1819/1823 4200 -SHRA 
     BECMG 1902/1903 27008KT FEW010 SCT030 
     BECMG 1911/1912 SCT010 BKN025 
     BECMG 1914/1915 24005KT 4200 BR 
     BECMG 1922/1923 6000 NSW
       
RKSI 181930Z 25005KT 4500 BR SCT013 BKN020 OVC100 19/16 Q1009 NOSIG
TAF RKSI 181700Z 1818/1924 25007KT 4200 BR FEW010 BKN030 BKN130 TN17/1821Z
TX24/1906Z TN17/1921Z 
     TEMPO 1820/1823 28008KT 2800 -SHRA 
     BECMG 1902/1903 19006KT 6000 NSW 
     BECMG 1904/1905 29010KT FEW010 SCT030 
     BECMG 1912/1913 3500 BR 
     BECMG 1922/1923 23006KT 6000 NSW
       
RKPC 181900Z 20001KT 5000 BR FEW010 BKN030 BKN180 20/18 Q1007 NOSIG
TAF RKPC 181700Z 1818/1924 23006KT 4200 BR FEW015 BKN030 BKN180 TN19/1820Z
TX25/1906Z TN19/1920Z 
     BECMG 1822/1823 05011KT 6000 NSW 
     BECMG 1901/1902 FEW030 
     BECMG 1908/1909 34006KT 4200 BR 
     BECMG 1912/1913 21006KT 2800 
     BECMG 1918/1919 32007KT 4200
       
RKJK 181856Z AUTO 30004KT 10SM OVC024 20/19 A2978 RMK AO2 OVC V BKN SLP088 T01990189 $
TAF RKJK 181500Z 1815/1921 VRB06KT 6000 BR SCT015 BKN030 QNH2980INS 
     BECMG 1821/1822 VRB06KT 9999 NSW BKN015 QNH2980INS 
     BECMG 1903/1905 VRB06KT 9999 BKN030 QNH2979INS 
     BECMG 1914/1915 VRB06KT 4800 BR BKN005 QNH2976INS TX24/1905Z TN17/1820Z
       
RKSO 181918Z AUTO 29005KT 7SM OVC013 20/18 A2979 RMK AO2 LTG DSNT N SLP090
TAF RKSO 181900Z 1819/2001 VRB06KT 6000 BR BKN015 BKN100 QNH2975INS 
     BECMG 1902/1903 29009KT 9999 NSW SCT020 BKN060 QNH2970INS 
     BECMG 1917/1918 VRB06KT 8000 BR BKN010 QNH2973INS TX26/1904Z TN17/1821Z
       
RKSM 181900Z 00000KT 9000 BR OVC015 20/18 A2980
TAF RKSM 181700Z 1818/1924 24006KT 9000 BR SCT010 BKN030 
     BECMG 1818/1819 24006KT 9000 BR BKN015 BKN030 
     BECMG 1901/1902 24006KT 9000 BR SCT010 BKN030 VIS 9999 NSW AFT 1903
TX27/1906Z TN18/1921Z
       
RKNY 181900Z AUTO 23005KT 9000 RA NCD 19/17 Q1006
TAF RKNY 181700Z 1818/1924 26010KT 6000 -RA SCT010 BKN030 OVC080 TN18/1821Z
TX26/1905Z TN20/1921Z 
     BECMG 1822/1823 9999 NSW SCT030 
     BECMG 1904/1905 17006KT 
     BECMG 1913/1914 25010KT